sensor_id;sensor_type;location;lat;lon;timestamp;P1;durP1;ratioP1;P2;durP2;ratioP2
30247;SDS011;17063;50.892;4.702;2022-11-20T00:01:16;21.73;;;12.60;;
30247;SDS011;17063;50.892;4.702;2022-11-20T00:03:45;22.10;;;13.13;;
30247;SDS011;17063;50.892;4.702;2022-11-20T00:06:19;21.73;;;13.40;;
30247;SDS011;17063;50.892;4.702;2022-11-20T00:08:47;23.60;;;13.37;;
30247;SDS011;17063;50.892;4.702;2022-11-20T00:11:18;23.23;;;12.80;;
30247;SDS011;17063;50.892;4.702;2022-11-20T00:13:47;20.67;;;11.90;;
30247;SDS011;17063;50.892;4.702;2022-11-20T00:16:16;23.50;;;13.07;;
30247;SDS011;17063;50.892;4.702;2022-11-20T00:18:44;23.27;;;13.70;;
30247;SDS011;17063;50.892;4.702;2022-11-20T00:21:15;20.93;;;12.30;;
30247;SDS011;17063;50.892;4.702;2022-11-20T00:23:44;22.23;;;12.33;;
30247;SDS011;17063;50.892;4.702;2022-11-20T00:26:15;20.37;;;12.47;;
30247;SDS011;17063;50.892;4.702;2022-11-20T00:28:43;20.10;;;12.20;;
30247;SDS011;17063;50.892;4.702;2022-11-20T00:31:11;24.47;;;12.80;;
30247;SDS011;17063;50.892;4.702;2022-11-20T00:33:41;21.10;;;12.23;;
30247;SDS011;17063;50.892;4.702;2022-11-20T00:36:09;22.77;;;14.00;;
30247;SDS011;17063;50.892;4.702;2022-11-20T00:38:37;23.50;;;13.80;;
30247;SDS011;17063;50.892;4.702;2022-11-20T00:41:05;22.10;;;12.90;;
30247;SDS011;17063;50.892;4.702;2022-11-20T00:43:33;23.33;;;12.87;;
30247;SDS011;17063;50.892;4.702;2022-11-20T00:46:04;24.77;;;12.90;;
30247;SDS011;17063;50.892;4.702;2022-11-20T00:48:32;21.70;;;12.53;;
30247;SDS011;17063;50.892;4.702;2022-11-20T00:50:59;28.30;;;13.77;;
30247;SDS011;17063;50.892;4.702;2022-11-20T00:53:27;22.93;;;12.90;;
30247;SDS011;17063;50.892;4.702;2022-11-20T00:56:01;22.70;;;13.23;;
30247;SDS011;17063;50.892;4.702;2022-11-20T00:58:30;19.47;;;11.73;;
30247;SDS011;17063;50.892;4.702;2022-11-20T01:01:02;20.47;;;12.50;;
30247;SDS011;17063;50.892;4.702;2022-11-20T01:03:39;21.90;;;13.27;;
30247;SDS011;17063;50.892;4.702;2022-11-20T01:06:12;25.93;;;13.30;;
30247;SDS011;17063;50.892;4.702;2022-11-20T01:08:41;23.53;;;13.00;;
30247;SDS011;17063;50.892;4.702;2022-11-20T01:11:09;25.20;;;13.67;;
30247;SDS011;17063;50.892;4.702;2022-11-20T01:13:41;22.87;;;13.37;;
30247;SDS011;17063;50.892;4.702;2022-11-20T01:16:10;29.90;;;14.17;;
30247;SDS011;17063;50.892;4.702;2022-11-20T01:18:38;22.37;;;13.23;;
30247;SDS011;17063;50.892;4.702;2022-11-20T01:21:28;25.00;;;13.83;;
30247;SDS011;17063;50.892;4.702;2022-11-20T01:23:57;22.17;;;12.60;;
30247;SDS011;17063;50.892;4.702;2022-11-20T01:26:25;24.73;;;14.73;;
30247;SDS011;17063;50.892;4.702;2022-11-20T01:28:59;31.13;;;15.67;;
30247;SDS011;17063;50.892;4.702;2022-11-20T01:31:27;29.83;;;15.30;;
30247;SDS011;17063;50.892;4.702;2022-11-20T01:33:59;29.13;;;14.10;;
30247;SDS011;17063;50.892;4.702;2022-11-20T01:36:28;27.00;;;13.70;;
30247;SDS011;17063;50.892;4.702;2022-11-20T01:38:57;26.23;;;13.97;;
30247;SDS011;17063;50.892;4.702;2022-11-20T01:41:26;26.93;;;14.70;;
30247;SDS011;17063;50.892;4.702;2022-11-20T01:44:15;26.73;;;14.30;;
30247;SDS011;17063;50.892;4.702;2022-11-20T01:46:49;24.93;;;14.33;;
30247;SDS011;17063;50.892;4.702;2022-11-20T01:50:05;27.20;;;14.57;;
30247;SDS011;17063;50.892;4.702;2022-11-20T01:52:23;30.17;;;14.67;;
30247;SDS011;17063;50.892;4.702;2022-11-20T01:54:56;29.33;;;14.40;;
30247;SDS011;17063;50.892;4.702;2022-11-20T01:57:27;25.80;;;14.93;;
30247;SDS011;17063;50.892;4.702;2022-11-20T02:00:04;27.53;;;14.23;;
30247;SDS011;17063;50.892;4.702;2022-11-20T02:02:39;26.53;;;15.20;;
30247;SDS011;17063;50.892;4.702;2022-11-20T02:05:31;30.37;;;14.93;;
30247;SDS011;17063;50.892;4.702;2022-11-20T02:07:58;29.10;;;14.70;;
30247;SDS011;17063;50.892;4.702;2022-11-20T02:10:26;29.87;;;13.97;;
30247;SDS011;17063;50.892;4.702;2022-11-20T02:12:53;30.23;;;15.47;;
30247;SDS011;17063;50.892;4.702;2022-11-20T02:15:38;30.90;;;14.67;;
30247;SDS011;17063;50.892;4.702;2022-11-20T02:18:06;32.00;;;14.07;;
30247;SDS011;17063;50.892;4.702;2022-11-20T02:20:33;32.67;;;15.50;;
30247;SDS011;17063;50.892;4.702;2022-11-20T02:23:04;30.17;;;16.40;;
30247;SDS011;17063;50.892;4.702;2022-11-20T02:25:35;32.73;;;15.70;;
30247;SDS011;17063;50.892;4.702;2022-11-20T02:28:03;35.90;;;16.63;;
30247;SDS011;17063;50.892;4.702;2022-11-20T02:30:30;27.93;;;16.03;;
30247;SDS011;17063;50.892;4.702;2022-11-20T02:32:57;28.17;;;14.73;;
30247;SDS011;17063;50.892;4.702;2022-11-20T02:37:52;29.13;;;15.70;;
30247;SDS011;17063;50.892;4.702;2022-11-20T02:40:21;30.13;;;15.00;;
30247;SDS011;17063;50.892;4.702;2022-11-20T02:42:51;32.07;;;16.13;;
30247;SDS011;17063;50.892;4.702;2022-11-20T02:45:18;34.30;;;16.33;;
30247;SDS011;17063;50.892;4.702;2022-11-20T02:47:45;34.40;;;15.93;;
30247;SDS011;17063;50.892;4.702;2022-11-20T02:50:12;32.37;;;16.20;;
30247;SDS011;17063;50.892;4.702;2022-11-20T02:52:39;29.80;;;15.57;;
30247;SDS011;17063;50.892;4.702;2022-11-20T02:55:05;29.97;;;14.63;;
30247;SDS011;17063;50.892;4.702;2022-11-20T02:57:33;36.73;;;16.13;;
30247;SDS011;17063;50.892;4.702;2022-11-20T03:00:00;30.43;;;15.40;;
30247;SDS011;17063;50.892;4.702;2022-11-20T03:02:29;29.77;;;16.43;;
30247;SDS011;17063;50.892;4.702;2022-11-20T03:04:57;36.53;;;17.37;;
30247;SDS011;17063;50.892;4.702;2022-11-20T03:07:23;37.10;;;17.80;;
30247;SDS011;17063;50.892;4.702;2022-11-20T03:09:50;37.07;;;17.90;;
30247;SDS011;17063;50.892;4.702;2022-11-20T03:12:17;42.73;;;18.17;;
30247;SDS011;17063;50.892;4.702;2022-11-20T03:14:44;40.93;;;18.37;;
30247;SDS011;17063;50.892;4.702;2022-11-20T03:17:18;39.07;;;18.27;;
30247;SDS011;17063;50.892;4.702;2022-11-20T03:19:44;38.50;;;17.20;;
30247;SDS011;17063;50.892;4.702;2022-11-20T03:22:11;38.23;;;18.33;;
30247;SDS011;17063;50.892;4.702;2022-11-20T03:24:38;37.70;;;17.20;;
30247;SDS011;17063;50.892;4.702;2022-11-20T03:27:05;42.77;;;17.97;;
30247;SDS011;17063;50.892;4.702;2022-11-20T03:29:32;43.20;;;19.43;;
30247;SDS011;17063;50.892;4.702;2022-11-20T03:31:59;37.03;;;17.57;;
30247;SDS011;17063;50.892;4.702;2022-11-20T03:34:25;36.57;;;17.83;;
30247;SDS011;17063;50.892;4.702;2022-11-20T03:36:52;44.10;;;17.40;;
30247;SDS011;17063;50.892;4.702;2022-11-20T03:39:19;38.83;;;18.10;;
30247;SDS011;17063;50.892;4.702;2022-11-20T03:41:46;43.43;;;19.53;;
30247;SDS011;17063;50.892;4.702;2022-11-20T03:44:13;42.67;;;19.53;;
30247;SDS011;17063;50.892;4.702;2022-11-20T03:46:40;39.73;;;18.83;;
30247;SDS011;17063;50.892;4.702;2022-11-20T03:49:06;45.17;;;20.33;;
30247;SDS011;17063;50.892;4.702;2022-11-20T03:51:34;40.77;;;18.53;;
30247;SDS011;17063;50.892;4.702;2022-11-20T03:54:03;38.50;;;17.50;;
30247;SDS011;17063;50.892;4.702;2022-11-20T03:56:33;42.93;;;18.47;;
30247;SDS011;17063;50.892;4.702;2022-11-20T03:59:01;37.73;;;18.10;;
30247;SDS011;17063;50.892;4.702;2022-11-20T04:01:29;42.03;;;18.47;;
30247;SDS011;17063;50.892;4.702;2022-11-20T04:03:58;40.23;;;17.93;;
30247;SDS011;17063;50.892;4.702;2022-11-20T04:06:26;36.73;;;18.07;;
30247;SDS011;17063;50.892;4.702;2022-11-20T04:08:55;38.80;;;18.90;;
30247;SDS011;17063;50.892;4.702;2022-11-20T04:11:26;44.17;;;18.60;;
30247;SDS011;17063;50.892;4.702;2022-11-20T04:13:55;41.63;;;18.37;;
30247;SDS011;17063;50.892;4.702;2022-11-20T04:16:23;37.10;;;18.70;;
30247;SDS011;17063;50.892;4.702;2022-11-20T04:18:54;37.53;;;17.13;;
30247;SDS011;17063;50.892;4.702;2022-11-20T04:21:23;39.10;;;17.40;;
30247;SDS011;17063;50.892;4.702;2022-11-20T04:23:51;39.50;;;17.93;;
30247;SDS011;17063;50.892;4.702;2022-11-20T04:26:19;44.77;;;18.87;;
30247;SDS011;17063;50.892;4.702;2022-11-20T04:28:47;35.47;;;16.17;;
30247;SDS011;17063;50.892;4.702;2022-11-20T04:31:18;38.57;;;17.77;;
30247;SDS011;17063;50.892;4.702;2022-11-20T04:33:49;36.47;;;17.47;;
30247;SDS011;17063;50.892;4.702;2022-11-20T04:36:17;37.20;;;17.07;;
30247;SDS011;17063;50.892;4.702;2022-11-20T04:38:55;40.63;;;18.47;;
30247;SDS011;17063;50.892;4.702;2022-11-20T04:41:24;39.03;;;17.03;;
30247;SDS011;17063;50.892;4.702;2022-11-20T04:43:53;33.10;;;16.63;;
30247;SDS011;17063;50.892;4.702;2022-11-20T04:46:26;31.60;;;16.30;;
30247;SDS011;17063;50.892;4.702;2022-11-20T04:48:53;36.43;;;16.83;;
30247;SDS011;17063;50.892;4.702;2022-11-20T04:51:20;32.80;;;16.53;;
30247;SDS011;17063;50.892;4.702;2022-11-20T04:53:47;35.83;;;17.83;;
30247;SDS011;17063;50.892;4.702;2022-11-20T04:56:15;31.23;;;16.13;;
30247;SDS011;17063;50.892;4.702;2022-11-20T04:58:42;34.83;;;18.53;;
30247;SDS011;17063;50.892;4.702;2022-11-20T05:01:10;33.30;;;16.23;;
30247;SDS011;17063;50.892;4.702;2022-11-20T05:03:42;31.57;;;15.37;;
30247;SDS011;17063;50.892;4.702;2022-11-20T05:06:10;31.90;;;16.07;;
30247;SDS011;17063;50.892;4.702;2022-11-20T05:08:38;31.00;;;15.97;;
30247;SDS011;17063;50.892;4.702;2022-11-20T05:11:07;26.27;;;14.50;;
30247;SDS011;17063;50.892;4.702;2022-11-20T05:13:41;33.47;;;15.13;;
30247;SDS011;17063;50.892;4.702;2022-11-20T05:16:13;30.83;;;14.33;;
30247;SDS011;17063;50.892;4.702;2022-11-20T05:18:41;26.80;;;13.90;;
30247;SDS011;17063;50.892;4.702;2022-11-20T05:21:09;27.90;;;14.47;;
30247;SDS011;17063;50.892;4.702;2022-11-20T05:23:40;31.73;;;14.10;;
30247;SDS011;17063;50.892;4.702;2022-11-20T05:26:08;25.63;;;12.57;;
30247;SDS011;17063;50.892;4.702;2022-11-20T05:28:39;27.50;;;14.10;;
30247;SDS011;17063;50.892;4.702;2022-11-20T05:31:11;25.00;;;13.47;;
30247;SDS011;17063;50.892;4.702;2022-11-20T05:33:39;30.23;;;14.83;;
30247;SDS011;17063;50.892;4.702;2022-11-20T05:36:08;30.07;;;14.00;;
30247;SDS011;17063;50.892;4.702;2022-11-20T05:38:35;25.47;;;14.10;;
30247;SDS011;17063;50.892;4.702;2022-11-20T05:41:03;27.17;;;14.07;;
30247;SDS011;17063;50.892;4.702;2022-11-20T05:43:33;29.93;;;14.03;;
30247;SDS011;17063;50.892;4.702;2022-11-20T05:46:01;29.23;;;14.43;;
30247;SDS011;17063;50.892;4.702;2022-11-20T05:48:28;29.50;;;14.30;;
30247;SDS011;17063;50.892;4.702;2022-11-20T05:50:56;28.47;;;14.00;;
30247;SDS011;17063;50.892;4.702;2022-11-20T05:53:24;32.37;;;14.83;;
30247;SDS011;17063;50.892;4.702;2022-11-20T05:56:04;25.20;;;13.50;;
30247;SDS011;17063;50.892;4.702;2022-11-20T05:58:32;29.43;;;14.17;;
30247;SDS011;17063;50.892;4.702;2022-11-20T06:01:10;30.93;;;13.87;;
30247;SDS011;17063;50.892;4.702;2022-11-20T06:03:44;28.17;;;13.70;;
30247;SDS011;17063;50.892;4.702;2022-11-20T06:06:16;28.50;;;14.17;;
30247;SDS011;17063;50.892;4.702;2022-11-20T06:08:44;28.53;;;13.97;;
30247;SDS011;17063;50.892;4.702;2022-11-20T06:11:12;30.20;;;14.63;;
30247;SDS011;17063;50.892;4.702;2022-11-20T06:13:39;31.50;;;14.40;;
30247;SDS011;17063;50.892;4.702;2022-11-20T06:16:08;27.97;;;13.93;;
30247;SDS011;17063;50.892;4.702;2022-11-20T06:18:35;29.67;;;14.03;;
30247;SDS011;17063;50.892;4.702;2022-11-20T06:21:03;28.27;;;13.93;;
30247;SDS011;17063;50.892;4.702;2022-11-20T06:23:35;31.73;;;14.63;;
30247;SDS011;17063;50.892;4.702;2022-11-20T06:26:03;30.67;;;15.27;;
30247;SDS011;17063;50.892;4.702;2022-11-20T06:28:37;29.23;;;13.97;;
30247;SDS011;17063;50.892;4.702;2022-11-20T06:31:05;27.57;;;13.83;;
30247;SDS011;17063;50.892;4.702;2022-11-20T06:33:33;36.17;;;14.13;;
30247;SDS011;17063;50.892;4.702;2022-11-20T06:36:00;30.63;;;15.03;;
30247;SDS011;17063;50.892;4.702;2022-11-20T06:38:35;33.27;;;15.00;;
30247;SDS011;17063;50.892;4.702;2022-11-20T06:41:02;34.47;;;15.97;;
30247;SDS011;17063;50.892;4.702;2022-11-20T06:43:30;35.77;;;16.57;;
30247;SDS011;17063;50.892;4.702;2022-11-20T06:45:58;37.37;;;16.13;;
30247;SDS011;17063;50.892;4.702;2022-11-20T06:48:26;42.40;;;17.50;;
30247;SDS011;17063;50.892;4.702;2022-11-20T06:50:53;42.60;;;17.73;;
30247;SDS011;17063;50.892;4.702;2022-11-20T06:53:21;42.77;;;18.77;;
30247;SDS011;17063;50.892;4.702;2022-11-20T06:55:48;47.23;;;18.77;;
30247;SDS011;17063;50.892;4.702;2022-11-20T06:58:15;42.93;;;17.80;;
30247;SDS011;17063;50.892;4.702;2022-11-20T07:00:42;46.53;;;18.30;;
30247;SDS011;17063;50.892;4.702;2022-11-20T07:03:10;47.20;;;18.80;;
30247;SDS011;17063;50.892;4.702;2022-11-20T07:05:37;44.10;;;18.77;;
30247;SDS011;17063;50.892;4.702;2022-11-20T07:08:04;51.67;;;19.50;;
30247;SDS011;17063;50.892;4.702;2022-11-20T07:10:32;45.47;;;18.00;;
30247;SDS011;17063;50.892;4.702;2022-11-20T07:12:59;46.73;;;18.90;;
30247;SDS011;17063;50.892;4.702;2022-11-20T07:15:26;56.40;;;19.93;;
30247;SDS011;17063;50.892;4.702;2022-11-20T07:17:53;49.00;;;17.50;;
30247;SDS011;17063;50.892;4.702;2022-11-20T07:20:20;44.80;;;17.57;;
30247;SDS011;17063;50.892;4.702;2022-11-20T07:22:52;50.73;;;19.20;;
30247;SDS011;17063;50.892;4.702;2022-11-20T07:25:20;45.17;;;17.87;;
30247;SDS011;17063;50.892;4.702;2022-11-20T07:27:47;50.83;;;18.60;;
30247;SDS011;17063;50.892;4.702;2022-11-20T07:30:14;48.73;;;18.37;;
30247;SDS011;17063;50.892;4.702;2022-11-20T07:32:42;57.87;;;19.53;;
30247;SDS011;17063;50.892;4.702;2022-11-20T07:35:09;52.17;;;18.20;;
30247;SDS011;17063;50.892;4.702;2022-11-20T07:37:36;50.60;;;18.47;;
30247;SDS011;17063;50.892;4.702;2022-11-20T07:40:02;54.47;;;20.17;;
30247;SDS011;17063;50.892;4.702;2022-11-20T07:42:30;56.17;;;18.90;;
30247;SDS011;17063;50.892;4.702;2022-11-20T07:44:56;48.47;;;18.43;;
30247;SDS011;17063;50.892;4.702;2022-11-20T07:47:26;52.90;;;19.67;;
30247;SDS011;17063;50.892;4.702;2022-11-20T07:49:53;52.73;;;19.07;;
30247;SDS011;17063;50.892;4.702;2022-11-20T07:52:20;45.30;;;18.53;;
30247;SDS011;17063;50.892;4.702;2022-11-20T07:54:47;51.97;;;18.70;;
30247;SDS011;17063;50.892;4.702;2022-11-20T07:57:14;54.67;;;20.13;;
30247;SDS011;17063;50.892;4.702;2022-11-20T07:59:41;56.83;;;20.00;;
30247;SDS011;17063;50.892;4.702;2022-11-20T08:02:09;51.17;;;18.50;;
30247;SDS011;17063;50.892;4.702;2022-11-20T08:04:37;53.60;;;20.83;;
30247;SDS011;17063;50.892;4.702;2022-11-20T08:07:04;54.97;;;19.43;;
30247;SDS011;17063;50.892;4.702;2022-11-20T08:09:31;53.77;;;19.60;;
30247;SDS011;17063;50.892;4.702;2022-11-20T08:11:59;55.17;;;20.67;;
30247;SDS011;17063;50.892;4.702;2022-11-20T08:14:44;56.37;;;20.40;;
30247;SDS011;17063;50.892;4.702;2022-11-20T08:17:11;55.70;;;20.43;;
30247;SDS011;17063;50.892;4.702;2022-11-20T08:19:38;55.03;;;20.87;;
30247;SDS011;17063;50.892;4.702;2022-11-20T08:22:08;55.47;;;20.17;;
30247;SDS011;17063;50.892;4.702;2022-11-20T08:24:39;51.70;;;18.93;;
30247;SDS011;17063;50.892;4.702;2022-11-20T08:27:09;55.93;;;20.80;;
30247;SDS011;17063;50.892;4.702;2022-11-20T08:29:38;58.10;;;19.90;;
30247;SDS011;17063;50.892;4.702;2022-11-20T08:32:06;51.53;;;20.40;;
30247;SDS011;17063;50.892;4.702;2022-11-20T08:34:32;48.10;;;19.57;;
30247;SDS011;17063;50.892;4.702;2022-11-20T08:37:01;53.20;;;20.30;;
30247;SDS011;17063;50.892;4.702;2022-11-20T08:39:29;55.20;;;20.83;;
30247;SDS011;17063;50.892;4.702;2022-11-20T08:41:55;50.30;;;20.07;;
30247;SDS011;17063;50.892;4.702;2022-11-20T08:44:22;49.60;;;19.47;;
30247;SDS011;17063;50.892;4.702;2022-11-20T08:46:50;52.60;;;19.67;;
30247;SDS011;17063;50.892;4.702;2022-11-20T08:49:17;55.23;;;19.20;;
30247;SDS011;17063;50.892;4.702;2022-11-20T08:51:44;53.30;;;19.97;;
30247;SDS011;17063;50.892;4.702;2022-11-20T08:54:13;54.67;;;20.10;;
30247;SDS011;17063;50.892;4.702;2022-11-20T08:56:40;57.70;;;20.50;;
30247;SDS011;17063;50.892;4.702;2022-11-20T08:59:07;52.90;;;19.63;;
30247;SDS011;17063;50.892;4.702;2022-11-20T09:01:54;54.20;;;20.03;;
30247;SDS011;17063;50.892;4.702;2022-11-20T09:04:24;53.63;;;19.23;;
30247;SDS011;17063;50.892;4.702;2022-11-20T09:06:51;55.50;;;19.83;;
30247;SDS011;17063;50.892;4.702;2022-11-20T09:09:19;55.97;;;20.93;;
30247;SDS011;17063;50.892;4.702;2022-11-20T09:11:52;57.73;;;20.03;;
30247;SDS011;17063;50.892;4.702;2022-11-20T09:14:24;45.80;;;19.57;;
30247;SDS011;17063;50.892;4.702;2022-11-20T09:16:55;55.57;;;19.03;;
30247;SDS011;17063;50.892;4.702;2022-11-20T09:19:26;53.17;;;19.43;;
30247;SDS011;17063;50.892;4.702;2022-11-20T09:22:06;55.37;;;18.93;;
30247;SDS011;17063;50.892;4.702;2022-11-20T09:24:33;55.93;;;18.43;;
30247;SDS011;17063;50.892;4.702;2022-11-20T09:27:04;50.60;;;18.53;;
30247;SDS011;17063;50.892;4.702;2022-11-20T09:29:31;49.47;;;18.33;;
30247;SDS011;17063;50.892;4.702;2022-11-20T09:31:58;45.30;;;17.67;;
30247;SDS011;17063;50.892;4.702;2022-11-20T09:34:28;55.77;;;19.77;;
30247;SDS011;17063;50.892;4.702;2022-11-20T09:36:56;47.67;;;18.10;;
30247;SDS011;17063;50.892;4.702;2022-11-20T09:39:29;48.97;;;19.70;;
30247;SDS011;17063;50.892;4.702;2022-11-20T09:44:47;45.10;;;18.03;;
30247;SDS011;17063;50.892;4.702;2022-11-20T09:53:18;45.60;;;17.00;;
30247;SDS011;17063;50.892;4.702;2022-11-20T09:55:57;49.77;;;16.33;;
30247;SDS011;17063;50.892;4.702;2022-11-20T09:58:35;43.37;;;16.40;;
30247;SDS011;17063;50.892;4.702;2022-11-20T10:01:10;54.43;;;18.07;;
30247;SDS011;17063;50.892;4.702;2022-11-20T10:06:30;43.03;;;16.93;;
30247;SDS011;17063;50.892;4.702;2022-11-20T10:19:39;35.53;;;15.23;;
30247;SDS011;17063;50.892;4.702;2022-11-20T10:25:14;41.87;;;15.73;;
30247;SDS011;17063;50.892;4.702;2022-11-20T10:30:19;34.20;;;14.47;;
30247;SDS011;17063;50.892;4.702;2022-11-20T10:32:51;36.80;;;14.83;;
30247;SDS011;17063;50.892;4.702;2022-11-20T10:41:30;32.53;;;13.10;;
30247;SDS011;17063;50.892;4.702;2022-11-20T10:44:22;24.53;;;11.97;;
30247;SDS011;17063;50.892;4.702;2022-11-20T10:47:24;31.53;;;13.20;;
30247;SDS011;17063;50.892;4.702;2022-11-20T10:49:57;28.33;;;11.90;;
30247;SDS011;17063;50.892;4.702;2022-11-20T10:55:46;26.13;;;10.87;;
30247;SDS011;17063;50.892;4.702;2022-11-20T10:58:23;21.43;;;10.27;;
30247;SDS011;17063;50.892;4.702;2022-11-20T11:01:11;26.13;;;10.17;;
30247;SDS011;17063;50.892;4.702;2022-11-20T11:03:43;22.30;;;9.07;;
30247;SDS011;17063;50.892;4.702;2022-11-20T11:06:32;24.90;;;9.87;;
30247;SDS011;17063;50.892;4.702;2022-11-20T11:09:04;19.33;;;8.93;;
30247;SDS011;17063;50.892;4.702;2022-11-20T11:11:40;16.87;;;7.83;;
30247;SDS011;17063;50.892;4.702;2022-11-20T11:14:07;16.27;;;7.97;;
30247;SDS011;17063;50.892;4.702;2022-11-20T11:16:35;15.13;;;7.63;;
30247;SDS011;17063;50.892;4.702;2022-11-20T11:19:07;16.70;;;7.80;;
30247;SDS011;17063;50.892;4.702;2022-11-20T11:21:56;21.87;;;8.17;;
30247;SDS011;17063;50.892;4.702;2022-11-20T11:24:27;17.13;;;6.93;;
30247;SDS011;17063;50.892;4.702;2022-11-20T11:27:12;18.33;;;8.63;;
30247;SDS011;17063;50.892;4.702;2022-11-20T11:29:47;13.17;;;6.40;;
30247;SDS011;17063;50.892;4.702;2022-11-20T11:32:20;14.00;;;6.13;;
30247;SDS011;17063;50.892;4.702;2022-11-20T11:35:02;11.00;;;4.60;;
30247;SDS011;17063;50.892;4.702;2022-11-20T11:37:34;12.93;;;5.33;;
30247;SDS011;17063;50.892;4.702;2022-11-20T11:40:03;9.37;;;4.53;;
30247;SDS011;17063;50.892;4.702;2022-11-20T11:42:54;7.17;;;3.67;;
30247;SDS011;17063;50.892;4.702;2022-11-20T11:45:25;7.97;;;5.00;;
30247;SDS011;17063;50.892;4.702;2022-11-20T11:47:53;7.90;;;4.83;;
30247;SDS011;17063;50.892;4.702;2022-11-20T11:50:28;7.50;;;3.57;;
30247;SDS011;17063;50.892;4.702;2022-11-20T12:01:44;8.83;;;3.53;;
30247;SDS011;17063;50.892;4.702;2022-11-20T12:04:07;4.60;;;2.53;;
30247;SDS011;17063;50.892;4.702;2022-11-20T12:07:00;7.57;;;2.60;;
30247;SDS011;17063;50.892;4.702;2022-11-20T12:09:53;7.43;;;2.27;;
30247;SDS011;17063;50.892;4.702;2022-11-20T12:12:25;5.73;;;2.50;;
30247;SDS011;17063;50.892;4.702;2022-11-20T12:14:55;9.40;;;2.60;;
30247;SDS011;17063;50.892;4.702;2022-11-20T12:17:26;5.03;;;2.27;;
30247;SDS011;17063;50.892;4.702;2022-11-20T12:19:53;9.60;;;2.00;;
30247;SDS011;17063;50.892;4.702;2022-11-20T12:22:32;4.07;;;2.20;;
30247;SDS011;17063;50.892;4.702;2022-11-20T12:25:16;6.87;;;1.93;;
30247;SDS011;17063;50.892;4.702;2022-11-20T12:28:05;7.13;;;1.93;;
30247;SDS011;17063;50.892;4.702;2022-11-20T12:39:12;6.93;;;1.87;;
30247;SDS011;17063;50.892;4.702;2022-11-20T12:42:09;7.27;;;1.90;;
30247;SDS011;17063;50.892;4.702;2022-11-20T12:50:47;7.37;;;1.80;;
30247;SDS011;17063;50.892;4.702;2022-11-20T12:56:40;8.63;;;2.57;;
30247;SDS011;17063;50.892;4.702;2022-11-20T13:07:33;3.57;;;2.10;;
30247;SDS011;17063;50.892;4.702;2022-11-20T13:10:02;9.23;;;2.80;;
30247;SDS011;17063;50.892;4.702;2022-11-20T13:12:57;5.50;;;2.20;;
30247;SDS011;17063;50.892;4.702;2022-11-20T13:18:45;6.97;;;2.23;;
30247;SDS011;17063;50.892;4.702;2022-11-20T13:21:16;5.03;;;2.10;;
30247;SDS011;17063;50.892;4.702;2022-11-20T13:23:46;5.47;;;2.10;;
30247;SDS011;17063;50.892;4.702;2022-11-20T13:26:20;6.90;;;2.00;;
30247;SDS011;17063;50.892;4.702;2022-11-20T13:29:04;7.07;;;2.10;;
30247;SDS011;17063;50.892;4.702;2022-11-20T13:31:36;8.00;;;2.23;;
30247;SDS011;17063;50.892;4.702;2022-11-20T13:34:11;6.63;;;2.20;;
30247;SDS011;17063;50.892;4.702;2022-11-20T13:36:53;6.60;;;2.27;;
30247;SDS011;17063;50.892;4.702;2022-11-20T13:39:29;7.50;;;2.17;;
30247;SDS011;17063;50.892;4.702;2022-11-20T13:44:48;4.77;;;2.53;;
30247;SDS011;17063;50.892;4.702;2022-11-20T13:47:22;6.40;;;2.03;;
30247;SDS011;17063;50.892;4.702;2022-11-20T13:49:53;5.23;;;2.37;;
30247;SDS011;17063;50.892;4.702;2022-11-20T14:00:50;5.73;;;2.00;;
30247;SDS011;17063;50.892;4.702;2022-11-20T14:03:24;3.63;;;2.00;;
30247;SDS011;17063;50.892;4.702;2022-11-20T14:08:58;7.73;;;3.90;;
30247;SDS011;17063;50.892;4.702;2022-11-20T14:11:29;6.17;;;5.07;;
30247;SDS011;17063;50.892;4.702;2022-11-20T14:16:35;3.70;;;2.27;;
30247;SDS011;17063;50.892;4.702;2022-11-20T14:22:24;5.23;;;3.50;;
30247;SDS011;17063;50.892;4.702;2022-11-20T14:27:57;2.83;;;1.50;;
30247;SDS011;17063;50.892;4.702;2022-11-20T14:36:48;2.47;;;1.90;;
30247;SDS011;17063;50.892;4.702;2022-11-20T14:39:20;1.63;;;1.40;;
30247;SDS011;17063;50.892;4.702;2022-11-20T14:41:55;4.00;;;1.40;;
30247;SDS011;17063;50.892;4.702;2022-11-20T14:44:28;2.70;;;1.43;;
30247;SDS011;17063;50.892;4.702;2022-11-20T14:47:00;1.73;;;1.63;;
30247;SDS011;17063;50.892;4.702;2022-11-20T14:49:29;3.50;;;1.50;;
30247;SDS011;17063;50.892;4.702;2022-11-20T14:52:01;4.13;;;1.90;;
30247;SDS011;17063;50.892;4.702;2022-11-20T14:54:43;3.27;;;2.00;;
30247;SDS011;17063;50.892;4.702;2022-11-20T15:02:38;3.37;;;1.60;;
30247;SDS011;17063;50.892;4.702;2022-11-20T15:05:45;2.60;;;1.60;;
30247;SDS011;17063;50.892;4.702;2022-11-20T15:08:17;2.73;;;1.30;;
30247;SDS011;17063;50.892;4.702;2022-11-20T15:16:53;2.73;;;1.50;;
30247;SDS011;17063;50.892;4.702;2022-11-20T15:19:24;1.73;;;1.20;;
30247;SDS011;17063;50.892;4.702;2022-11-20T15:21:55;2.13;;;1.27;;
30247;SDS011;17063;50.892;4.702;2022-11-20T15:24:23;5.23;;;1.43;;
30247;SDS011;17063;50.892;4.702;2022-11-20T15:26:53;2.20;;;1.30;;
30247;SDS011;17063;50.892;4.702;2022-11-20T15:29:23;3.27;;;1.50;;
30247;SDS011;17063;50.892;4.702;2022-11-20T15:31:56;2.70;;;1.50;;
30247;SDS011;17063;50.892;4.702;2022-11-20T15:34:23;4.47;;;1.60;;
30247;SDS011;17063;50.892;4.702;2022-11-20T15:36:52;4.37;;;1.73;;
30247;SDS011;17063;50.892;4.702;2022-11-20T15:39:22;2.27;;;1.67;;
30247;SDS011;17063;50.892;4.702;2022-11-20T15:41:52;3.23;;;2.23;;
30247;SDS011;17063;50.892;4.702;2022-11-20T15:44:18;3.27;;;2.70;;
30247;SDS011;17063;50.892;4.702;2022-11-20T15:46:49;6.10;;;2.30;;
30247;SDS011;17063;50.892;4.702;2022-11-20T15:49:16;5.27;;;3.00;;
30247;SDS011;17063;50.892;4.702;2022-11-20T15:51:46;4.30;;;2.93;;
30247;SDS011;17063;50.892;4.702;2022-11-20T15:54:21;5.23;;;3.23;;
30247;SDS011;17063;50.892;4.702;2022-11-20T15:56:49;8.73;;;2.73;;
30247;SDS011;17063;50.892;4.702;2022-11-20T15:59:19;5.03;;;2.80;;
30247;SDS011;17063;50.892;4.702;2022-11-20T16:01:49;6.63;;;2.60;;
30247;SDS011;17063;50.892;4.702;2022-11-20T16:04:17;5.43;;;2.87;;
30247;SDS011;17063;50.892;4.702;2022-11-20T16:06:45;9.07;;;3.77;;
30247;SDS011;17063;50.892;4.702;2022-11-20T16:09:13;5.53;;;2.63;;
30247;SDS011;17063;50.892;4.702;2022-11-20T16:11:40;4.83;;;2.40;;
30247;SDS011;17063;50.892;4.702;2022-11-20T16:14:08;5.63;;;2.30;;
30247;SDS011;17063;50.892;4.702;2022-11-20T16:16:55;8.17;;;2.90;;
30247;SDS011;17063;50.892;4.702;2022-11-20T16:19:22;9.20;;;2.67;;
30247;SDS011;17063;50.892;4.702;2022-11-20T16:21:49;10.40;;;2.53;;
30247;SDS011;17063;50.892;4.702;2022-11-20T16:24:15;10.80;;;3.33;;
30247;SDS011;17063;50.892;4.702;2022-11-20T16:26:42;10.53;;;2.80;;
30247;SDS011;17063;50.892;4.702;2022-11-20T16:29:09;9.63;;;3.10;;
30247;SDS011;17063;50.892;4.702;2022-11-20T16:31:37;4.73;;;2.57;;
30247;SDS011;17063;50.892;4.702;2022-11-20T16:34:05;8.17;;;3.00;;
30247;SDS011;17063;50.892;4.702;2022-11-20T16:36:40;11.13;;;2.70;;
30247;SDS011;17063;50.892;4.702;2022-11-20T16:39:08;10.90;;;2.40;;
30247;SDS011;17063;50.892;4.702;2022-11-20T16:41:35;11.97;;;2.50;;
30247;SDS011;17063;50.892;4.702;2022-11-20T16:44:06;11.43;;;2.60;;
30247;SDS011;17063;50.892;4.702;2022-11-20T16:46:34;12.87;;;2.60;;
30247;SDS011;17063;50.892;4.702;2022-11-20T16:49:03;21.50;;;2.97;;